Terminal Aerodrome Forecast
Issued by NWS Knoxville/Tri Cities, TN

Home | Current Version | Previous Version | Text Only | Print | Product List | Glossary On
Versions: 1 2 3 4 5 6 7 8 9 10 11 12 13 14 15 16 17 18 19 20 21 22 23 24 25 26
000
FTUS44 KMRX 231346 AAB
TAFTYS
TAF AMD
KTYS 231346Z 2314/2412 25010KT 2SM -RA BR BKN006 OVC012
     FM231600 28010G20KT 6SM -RA BR OVC007
     FM231800 30012G22KT P6SM BKN025
     FM240300 28010KT P6SM OVC015=

USA.gov is the U.S. government's official web portal to all federal, state and local government web resources and services.